sensor_id;sensor_type;location;lat;lon;timestamp;temperature;humidity
15386;DHT22;7791;47.246;9.648;2022-12-07T00:02:07;-1.70;99.90
15386;DHT22;7791;47.246;9.648;2022-12-07T00:04:33;-1.60;99.90
15386;DHT22;7791;47.246;9.648;2022-12-07T00:06:58;-1.40;99.90
15386;DHT22;7791;47.246;9.648;2022-12-07T00:09:25;-1.30;99.90
15386;DHT22;7791;47.246;9.648;2022-12-07T00:11:51;-1.20;99.90
15386;DHT22;7791;47.246;9.648;2022-12-07T00:14:18;-1.20;99.90
15386;DHT22;7791;47.246;9.648;2022-12-07T00:16:44;-1.10;99.90
15386;DHT22;7791;47.246;9.648;2022-12-07T00:19:13;-1.10;99.90
15386;DHT22;7791;47.246;9.648;2022-12-07T00:21:39;-1.10;99.90
15386;DHT22;7791;47.246;9.648;2022-12-07T00:24:06;-1.00;99.90
15386;DHT22;7791;47.246;9.648;2022-12-07T00:26:33;-0.90;99.90
15386;DHT22;7791;47.246;9.648;2022-12-07T00:29:02;-0.90;99.90
15386;DHT22;7791;47.246;9.648;2022-12-07T00:31:35;-0.80;99.90
15386;DHT22;7791;47.246;9.648;2022-12-07T00:34:22;-0.70;99.90
15386;DHT22;7791;47.246;9.648;2022-12-07T00:36:49;-0.70;99.90
15386;DHT22;7791;47.246;9.648;2022-12-07T00:39:16;-0.90;99.90
15386;DHT22;7791;47.246;9.648;2022-12-07T00:41:42;-1.00;99.90
15386;DHT22;7791;47.246;9.648;2022-12-07T00:44:08;-0.90;99.90
15386;DHT22;7791;47.246;9.648;2022-12-07T00:46:33;-0.80;99.90
15386;DHT22;7791;47.246;9.648;2022-12-07T00:49:05;-0.70;99.90
15386;DHT22;7791;47.246;9.648;2022-12-07T00:51:32;-0.80;99.90
15386;DHT22;7791;47.246;9.648;2022-12-07T00:53:57;-0.70;99.90
15386;DHT22;7791;47.246;9.648;2022-12-07T00:56:25;-0.60;99.90
15386;DHT22;7791;47.246;9.648;2022-12-07T00:58:52;-0.50;99.90
15386;DHT22;7791;47.246;9.648;2022-12-07T01:01:18;-0.40;99.90
15386;DHT22;7791;47.246;9.648;2022-12-07T01:06:48;-0.40;99.90
15386;DHT22;7791;47.246;9.648;2022-12-07T01:09:14;-0.30;99.90
15386;DHT22;7791;47.246;9.648;2022-12-07T01:11:40;-0.20;99.90
15386;DHT22;7791;47.246;9.648;2022-12-07T01:14:09;-0.10;99.90
15386;DHT22;7791;47.246;9.648;2022-12-07T01:16:34;0.00;99.90
15386;DHT22;7791;47.246;9.648;2022-12-07T01:19:02;0.00;99.90
15386;DHT22;7791;47.246;9.648;2022-12-07T01:21:30;0.00;99.90
15386;DHT22;7791;47.246;9.648;2022-12-07T01:23:58;0.10;99.90
15386;DHT22;7791;47.246;9.648;2022-12-07T01:26:25;0.10;99.90
15386;DHT22;7791;47.246;9.648;2022-12-07T01:28:52;0.20;99.90
15386;DHT22;7791;47.246;9.648;2022-12-07T01:31:20;0.20;99.90
15386;DHT22;7791;47.246;9.648;2022-12-07T01:34:11;0.20;99.90
15386;DHT22;7791;47.246;9.648;2022-12-07T01:36:37;0.20;99.90
15386;DHT22;7791;47.246;9.648;2022-12-07T01:39:06;0.20;99.90
15386;DHT22;7791;47.246;9.648;2022-12-07T01:41:34;0.20;99.90
15386;DHT22;7791;47.246;9.648;2022-12-07T01:44:19;0.30;99.90
15386;DHT22;7791;47.246;9.648;2022-12-07T01:46:47;0.30;99.90
15386;DHT22;7791;47.246;9.648;2022-12-07T01:49:26;0.30;99.90
15386;DHT22;7791;47.246;9.648;2022-12-07T01:51:57;0.30;99.90
15386;DHT22;7791;47.246;9.648;2022-12-07T01:54:27;0.30;99.90
15386;DHT22;7791;47.246;9.648;2022-12-07T01:56:55;0.30;99.90
15386;DHT22;7791;47.246;9.648;2022-12-07T01:59:23;0.30;99.90
15386;DHT22;7791;47.246;9.648;2022-12-07T02:01:50;0.40;99.90
15386;DHT22;7791;47.246;9.648;2022-12-07T02:04:21;0.30;99.90
15386;DHT22;7791;47.246;9.648;2022-12-07T02:06:48;0.30;99.90
15386;DHT22;7791;47.246;9.648;2022-12-07T02:09:13;0.30;99.90
15386;DHT22;7791;47.246;9.648;2022-12-07T02:11:41;0.40;99.90
15386;DHT22;7791;47.246;9.648;2022-12-07T02:14:07;0.40;99.90
15386;DHT22;7791;47.246;9.648;2022-12-07T02:16:42;0.40;99.90
15386;DHT22;7791;47.246;9.648;2022-12-07T02:25:27;0.50;99.90
15386;DHT22;7791;47.246;9.648;2022-12-07T02:28:01;0.40;99.90
15386;DHT22;7791;47.246;9.648;2022-12-07T02:30:34;0.40;99.90
15386;DHT22;7791;47.246;9.648;2022-12-07T02:33:03;0.30;99.90
15386;DHT22;7791;47.246;9.648;2022-12-07T02:35:41;0.30;99.90
15386;DHT22;7791;47.246;9.648;2022-12-07T02:38:12;0.40;99.90
15386;DHT22;7791;47.246;9.648;2022-12-07T02:40:42;0.40;99.90
15386;DHT22;7791;47.246;9.648;2022-12-07T02:43:12;0.50;99.90
15386;DHT22;7791;47.246;9.648;2022-12-07T02:45:41;0.50;99.90
15386;DHT22;7791;47.246;9.648;2022-12-07T02:48:10;0.50;99.90
15386;DHT22;7791;47.246;9.648;2022-12-07T02:50:37;0.40;99.90
15386;DHT22;7791;47.246;9.648;2022-12-07T02:53:03;0.20;99.90
15386;DHT22;7791;47.246;9.648;2022-12-07T02:55:33;0.10;99.90
15386;DHT22;7791;47.246;9.648;2022-12-07T02:58:23;0.20;99.90
15386;DHT22;7791;47.246;9.648;2022-12-07T03:01:02;0.30;99.90
15386;DHT22;7791;47.246;9.648;2022-12-07T03:03:31;0.50;99.90
15386;DHT22;7791;47.246;9.648;2022-12-07T03:06:22;0.50;99.90
15386;DHT22;7791;47.246;9.648;2022-12-07T03:08:57;0.60;99.90
15386;DHT22;7791;47.246;9.648;2022-12-07T03:11:32;0.60;99.90
15386;DHT22;7791;47.246;9.648;2022-12-07T03:14:02;0.70;99.90
15386;DHT22;7791;47.246;9.648;2022-12-07T03:16:40;0.70;99.90
15386;DHT22;7791;47.246;9.648;2022-12-07T03:19:13;0.70;99.90
15386;DHT22;7791;47.246;9.648;2022-12-07T03:22:08;0.70;99.90
15386;DHT22;7791;47.246;9.648;2022-12-07T03:24:38;0.80;99.90
15386;DHT22;7791;47.246;9.648;2022-12-07T03:27:10;0.80;99.90
15386;DHT22;7791;47.246;9.648;2022-12-07T03:29:42;0.80;99.90
15386;DHT22;7791;47.246;9.648;2022-12-07T03:32:14;0.80;99.90
15386;DHT22;7791;47.246;9.648;2022-12-07T03:34:47;0.70;99.90
15386;DHT22;7791;47.246;9.648;2022-12-07T03:37:31;0.80;99.90
15386;DHT22;7791;47.246;9.648;2022-12-07T03:40:03;0.80;99.90
15386;DHT22;7791;47.246;9.648;2022-12-07T03:42:33;0.80;99.90
15386;DHT22;7791;47.246;9.648;2022-12-07T03:44:59;0.80;99.90
15386;DHT22;7791;47.246;9.648;2022-12-07T03:47:31;0.80;99.90
15386;DHT22;7791;47.246;9.648;2022-12-07T03:50:02;0.80;99.90
15386;DHT22;7791;47.246;9.648;2022-12-07T03:52:55;0.80;99.90
15386;DHT22;7791;47.246;9.648;2022-12-07T03:55:26;0.80;99.90
15386;DHT22;7791;47.246;9.648;2022-12-07T03:57:56;0.90;99.90
15386;DHT22;7791;47.246;9.648;2022-12-07T04:00:23;0.80;99.90
15386;DHT22;7791;47.246;9.648;2022-12-07T04:02:56;0.90;99.90
15386;DHT22;7791;47.246;9.648;2022-12-07T04:05:23;0.80;99.90
15386;DHT22;7791;47.246;9.648;2022-12-07T04:10:52;0.90;99.90
15386;DHT22;7791;47.246;9.648;2022-12-07T04:13:18;0.90;99.90
15386;DHT22;7791;47.246;9.648;2022-12-07T04:15:43;0.90;99.90
15386;DHT22;7791;47.246;9.648;2022-12-07T04:18:11;0.80;99.90
15386;DHT22;7791;47.246;9.648;2022-12-07T04:20:36;0.80;99.90
15386;DHT22;7791;47.246;9.648;2022-12-07T04:23:02;0.90;99.90
15386;DHT22;7791;47.246;9.648;2022-12-07T04:25:29;0.90;99.90
15386;DHT22;7791;47.246;9.648;2022-12-07T04:27:55;0.90;99.90
15386;DHT22;7791;47.246;9.648;2022-12-07T04:30:22;0.90;99.90
15386;DHT22;7791;47.246;9.648;2022-12-07T04:32:47;0.90;99.90
15386;DHT22;7791;47.246;9.648;2022-12-07T04:35:15;0.90;99.90
15386;DHT22;7791;47.246;9.648;2022-12-07T04:38:00;0.90;99.90
15386;DHT22;7791;47.246;9.648;2022-12-07T04:40:25;0.90;99.90
15386;DHT22;7791;47.246;9.648;2022-12-07T04:42:52;0.90;99.90
15386;DHT22;7791;47.246;9.648;2022-12-07T04:45:17;0.90;99.90
15386;DHT22;7791;47.246;9.648;2022-12-07T04:47:43;0.90;99.90
15386;DHT22;7791;47.246;9.648;2022-12-07T04:50:10;0.80;99.90
15386;DHT22;7791;47.246;9.648;2022-12-07T04:55:40;0.80;99.90
15386;DHT22;7791;47.246;9.648;2022-12-07T04:58:06;0.80;99.90
15386;DHT22;7791;47.246;9.648;2022-12-07T05:00:32;0.80;99.90
15386;DHT22;7791;47.246;9.648;2022-12-07T05:02:58;0.90;99.90
15386;DHT22;7791;47.246;9.648;2022-12-07T05:05:23;0.90;99.90
15386;DHT22;7791;47.246;9.648;2022-12-07T05:10:55;0.90;99.90
15386;DHT22;7791;47.246;9.648;2022-12-07T05:13:20;1.00;99.90
15386;DHT22;7791;47.246;9.648;2022-12-07T05:15:46;0.90;99.90
15386;DHT22;7791;47.246;9.648;2022-12-07T05:18:12;0.90;99.90
15386;DHT22;7791;47.246;9.648;2022-12-07T05:20:38;0.90;99.90
15386;DHT22;7791;47.246;9.648;2022-12-07T05:23:04;0.90;99.90
15386;DHT22;7791;47.246;9.648;2022-12-07T05:25:30;1.00;99.90
15386;DHT22;7791;47.246;9.648;2022-12-07T05:27:57;1.00;99.90
15386;DHT22;7791;47.246;9.648;2022-12-07T05:30:25;1.00;99.90
15386;DHT22;7791;47.246;9.648;2022-12-07T05:32:52;1.00;99.90
15386;DHT22;7791;47.246;9.648;2022-12-07T05:35:18;1.10;99.90
15386;DHT22;7791;47.246;9.648;2022-12-07T05:37:47;1.10;99.90
15386;DHT22;7791;47.246;9.648;2022-12-07T05:40:18;1.10;99.90
15386;DHT22;7791;47.246;9.648;2022-12-07T05:42:45;1.10;99.90
15386;DHT22;7791;47.246;9.648;2022-12-07T05:45:12;1.20;99.90
15386;DHT22;7791;47.246;9.648;2022-12-07T05:47:39;1.20;99.90
15386;DHT22;7791;47.246;9.648;2022-12-07T05:50:07;1.20;99.90
15386;DHT22;7791;47.246;9.648;2022-12-07T05:52:33;1.30;99.90
15386;DHT22;7791;47.246;9.648;2022-12-07T05:54:59;1.30;99.90
15386;DHT22;7791;47.246;9.648;2022-12-07T05:57:25;1.30;99.90
15386;DHT22;7791;47.246;9.648;2022-12-07T05:59:51;1.30;99.90
15386;DHT22;7791;47.246;9.648;2022-12-07T06:02:20;1.30;99.90
15386;DHT22;7791;47.246;9.648;2022-12-07T06:04:46;1.30;99.90
15386;DHT22;7791;47.246;9.648;2022-12-07T06:07:14;1.40;99.90
15386;DHT22;7791;47.246;9.648;2022-12-07T06:09:41;1.30;99.90
15386;DHT22;7791;47.246;9.648;2022-12-07T06:12:08;1.30;99.90
15386;DHT22;7791;47.246;9.648;2022-12-07T06:14:34;1.20;99.90
15386;DHT22;7791;47.246;9.648;2022-12-07T06:17:00;1.30;99.90
15386;DHT22;7791;47.246;9.648;2022-12-07T06:19:28;1.40;99.90
15386;DHT22;7791;47.246;9.648;2022-12-07T06:21:54;1.40;99.90
15386;DHT22;7791;47.246;9.648;2022-12-07T06:24:20;1.30;99.90
15386;DHT22;7791;47.246;9.648;2022-12-07T06:26:46;1.30;99.90
15386;DHT22;7791;47.246;9.648;2022-12-07T06:29:12;1.10;99.90
15386;DHT22;7791;47.246;9.648;2022-12-07T06:31:38;1.10;99.90
15386;DHT22;7791;47.246;9.648;2022-12-07T06:34:05;1.30;99.90
15386;DHT22;7791;47.246;9.648;2022-12-07T06:36:34;1.30;99.90
15386;DHT22;7791;47.246;9.648;2022-12-07T06:39:29;1.40;99.90
15386;DHT22;7791;47.246;9.648;2022-12-07T06:41:55;1.50;99.90
15386;DHT22;7791;47.246;9.648;2022-12-07T06:44:22;1.50;99.90
15386;DHT22;7791;47.246;9.648;2022-12-07T06:46:48;1.50;99.90
15386;DHT22;7791;47.246;9.648;2022-12-07T06:49:15;1.50;99.90
15386;DHT22;7791;47.246;9.648;2022-12-07T06:51:42;1.60;99.90
15386;DHT22;7791;47.246;9.648;2022-12-07T07:00:15;1.60;99.90
15386;DHT22;7791;47.246;9.648;2022-12-07T07:02:41;1.50;99.90
15386;DHT22;7791;47.246;9.648;2022-12-07T07:05:07;1.50;99.90
15386;DHT22;7791;47.246;9.648;2022-12-07T07:07:35;1.50;99.90
15386;DHT22;7791;47.246;9.648;2022-12-07T07:10:00;1.60;99.90
15386;DHT22;7791;47.246;9.648;2022-12-07T07:12:26;1.60;99.90
15386;DHT22;7791;47.246;9.648;2022-12-07T07:14:53;1.60;99.90
15386;DHT22;7791;47.246;9.648;2022-12-07T07:17:19;1.60;99.90
15386;DHT22;7791;47.246;9.648;2022-12-07T07:19:45;1.60;99.90
15386;DHT22;7791;47.246;9.648;2022-12-07T07:22:14;1.70;99.90
15386;DHT22;7791;47.246;9.648;2022-12-07T07:24:41;1.70;99.90
15386;DHT22;7791;47.246;9.648;2022-12-07T07:27:07;1.70;99.90
15386;DHT22;7791;47.246;9.648;2022-12-07T07:29:33;1.70;99.90
15386;DHT22;7791;47.246;9.648;2022-12-07T07:32:00;1.70;99.90
15386;DHT22;7791;47.246;9.648;2022-12-07T07:34:25;1.70;99.90
15386;DHT22;7791;47.246;9.648;2022-12-07T07:36:52;1.80;99.90
15386;DHT22;7791;47.246;9.648;2022-12-07T07:39:18;1.80;99.90
15386;DHT22;7791;47.246;9.648;2022-12-07T07:41:47;1.80;99.90
15386;DHT22;7791;47.246;9.648;2022-12-07T07:44:12;1.80;99.90
15386;DHT22;7791;47.246;9.648;2022-12-07T07:46:39;1.80;99.90
15386;DHT22;7791;47.246;9.648;2022-12-07T07:49:06;1.80;99.90
15386;DHT22;7791;47.246;9.648;2022-12-07T07:51:31;1.80;99.90
15386;DHT22;7791;47.246;9.648;2022-12-07T07:53:57;1.90;99.90
15386;DHT22;7791;47.246;9.648;2022-12-07T07:56:23;1.90;99.90
15386;DHT22;7791;47.246;9.648;2022-12-07T07:58:53;1.70;99.90
15386;DHT22;7791;47.246;9.648;2022-12-07T08:01:23;1.50;99.90
15386;DHT22;7791;47.246;9.648;2022-12-07T08:03:49;1.40;99.90
15386;DHT22;7791;47.246;9.648;2022-12-07T08:06:15;1.50;99.90
15386;DHT22;7791;47.246;9.648;2022-12-07T08:08:41;1.40;99.90
15386;DHT22;7791;47.246;9.648;2022-12-07T08:11:10;1.60;99.90
15386;DHT22;7791;47.246;9.648;2022-12-07T08:13:37;1.70;99.90
15386;DHT22;7791;47.246;9.648;2022-12-07T08:16:06;1.90;99.90
15386;DHT22;7791;47.246;9.648;2022-12-07T08:18:35;1.90;99.90
15386;DHT22;7791;47.246;9.648;2022-12-07T08:21:01;2.10;99.90
15386;DHT22;7791;47.246;9.648;2022-12-07T08:23:29;2.10;99.90
15386;DHT22;7791;47.246;9.648;2022-12-07T08:26:19;2.20;99.90
15386;DHT22;7791;47.246;9.648;2022-12-07T08:28:44;2.20;99.90
15386;DHT22;7791;47.246;9.648;2022-12-07T08:31:14;2.30;99.90
15386;DHT22;7791;47.246;9.648;2022-12-07T08:33:41;2.30;99.90
15386;DHT22;7791;47.246;9.648;2022-12-07T08:36:11;2.40;99.90
15386;DHT22;7791;47.246;9.648;2022-12-07T08:38:39;2.50;99.90
15386;DHT22;7791;47.246;9.648;2022-12-07T08:41:17;2.50;99.90
15386;DHT22;7791;47.246;9.648;2022-12-07T08:43:44;2.50;99.90
15386;DHT22;7791;47.246;9.648;2022-12-07T08:46:13;2.50;99.90
15386;DHT22;7791;47.246;9.648;2022-12-07T08:48:44;2.40;99.90
15386;DHT22;7791;47.246;9.648;2022-12-07T08:51:12;2.50;99.90
15386;DHT22;7791;47.246;9.648;2022-12-07T08:53:40;2.60;99.90
15386;DHT22;7791;47.246;9.648;2022-12-07T08:56:07;2.40;99.90
15386;DHT22;7791;47.246;9.648;2022-12-07T08:58:34;2.30;99.90
15386;DHT22;7791;47.246;9.648;2022-12-07T09:01:00;2.30;99.90
15386;DHT22;7791;47.246;9.648;2022-12-07T09:03:27;2.20;99.90
15386;DHT22;7791;47.246;9.648;2022-12-07T09:05:54;2.20;99.90
15386;DHT22;7791;47.246;9.648;2022-12-07T09:08:22;2.50;99.90
15386;DHT22;7791;47.246;9.648;2022-12-07T09:10:50;2.70;99.90
15386;DHT22;7791;47.246;9.648;2022-12-07T09:16:20;2.90;99.90
15386;DHT22;7791;47.246;9.648;2022-12-07T09:18:48;3.00;99.90
15386;DHT22;7791;47.246;9.648;2022-12-07T09:21:14;3.20;99.90
15386;DHT22;7791;47.246;9.648;2022-12-07T09:23:41;3.30;99.90
15386;DHT22;7791;47.246;9.648;2022-12-07T09:26:07;3.50;99.90
15386;DHT22;7791;47.246;9.648;2022-12-07T09:28:56;3.40;99.90
15386;DHT22;7791;47.246;9.648;2022-12-07T09:31:22;2.80;99.90
15386;DHT22;7791;47.246;9.648;2022-12-07T09:33:53;2.90;99.90
15386;DHT22;7791;47.246;9.648;2022-12-07T09:36:19;3.20;99.90
15386;DHT22;7791;47.246;9.648;2022-12-07T09:38:46;3.50;99.90
15386;DHT22;7791;47.246;9.648;2022-12-07T09:41:12;3.80;99.90
15386;DHT22;7791;47.246;9.648;2022-12-07T09:43:39;4.00;99.90
15386;DHT22;7791;47.246;9.648;2022-12-07T09:46:05;4.30;99.90
15386;DHT22;7791;47.246;9.648;2022-12-07T09:48:33;4.40;99.90
15386;DHT22;7791;47.246;9.648;2022-12-07T09:51:02;4.40;99.90
15386;DHT22;7791;47.246;9.648;2022-12-07T09:53:32;4.40;99.90
15386;DHT22;7791;47.246;9.648;2022-12-07T09:55:59;4.20;99.90
15386;DHT22;7791;47.246;9.648;2022-12-07T09:58:28;4.00;99.90
15386;DHT22;7791;47.246;9.648;2022-12-07T10:00:58;4.30;99.90
15386;DHT22;7791;47.246;9.648;2022-12-07T10:03:26;4.40;99.90
15386;DHT22;7791;47.246;9.648;2022-12-07T10:05:53;4.70;99.90
15386;DHT22;7791;47.246;9.648;2022-12-07T10:08:20;5.00;99.90
15386;DHT22;7791;47.246;9.648;2022-12-07T10:10:51;5.30;99.90
15386;DHT22;7791;47.246;9.648;2022-12-07T10:13:20;5.50;99.90
15386;DHT22;7791;47.246;9.648;2022-12-07T10:15:49;5.70;99.90
15386;DHT22;7791;47.246;9.648;2022-12-07T10:18:34;5.90;99.90
15386;DHT22;7791;47.246;9.648;2022-12-07T10:21:10;6.00;99.90
15386;DHT22;7791;47.246;9.648;2022-12-07T10:23:39;6.00;99.90
15386;DHT22;7791;47.246;9.648;2022-12-07T10:26:29;6.00;99.90
15386;DHT22;7791;47.246;9.648;2022-12-07T10:28:56;6.00;99.90
15386;DHT22;7791;47.246;9.648;2022-12-07T10:31:24;6.00;99.90
15386;DHT22;7791;47.246;9.648;2022-12-07T10:33:52;5.80;99.90
15386;DHT22;7791;47.246;9.648;2022-12-07T10:36:22;5.50;99.90
15386;DHT22;7791;47.246;9.648;2022-12-07T10:38:52;5.40;99.90
15386;DHT22;7791;47.246;9.648;2022-12-07T10:41:18;5.70;99.90
15386;DHT22;7791;47.246;9.648;2022-12-07T10:43:52;5.90;99.90
15386;DHT22;7791;47.246;9.648;2022-12-07T10:46:40;5.50;99.90
15386;DHT22;7791;47.246;9.648;2022-12-07T10:52:42;5.20;99.90
15386;DHT22;7791;47.246;9.648;2022-12-07T10:55:20;5.10;99.90
15386;DHT22;7791;47.246;9.648;2022-12-07T10:57:58;5.00;99.90
15386;DHT22;7791;47.246;9.648;2022-12-07T11:00:32;4.60;99.90
15386;DHT22;7791;47.246;9.648;2022-12-07T11:03:09;4.30;99.90
15386;DHT22;7791;47.246;9.648;2022-12-07T11:05:48;4.10;99.90
15386;DHT22;7791;47.246;9.648;2022-12-07T11:08:24;4.10;99.90
15386;DHT22;7791;47.246;9.648;2022-12-07T11:10:57;4.10;99.90
15386;DHT22;7791;47.246;9.648;2022-12-07T11:13:30;4.20;99.90
15386;DHT22;7791;47.246;9.648;2022-12-07T11:16:28;4.30;99.90
15386;DHT22;7791;47.246;9.648;2022-12-07T11:19:13;4.30;99.90
15386;DHT22;7791;47.246;9.648;2022-12-07T11:21:48;4.40;99.90
15386;DHT22;7791;47.246;9.648;2022-12-07T11:24:20;4.50;99.90
15386;DHT22;7791;47.246;9.648;2022-12-07T11:27:01;4.60;99.90
15386;DHT22;7791;47.246;9.648;2022-12-07T11:29:44;4.60;99.90
15386;DHT22;7791;47.246;9.648;2022-12-07T11:32:17;4.50;99.90
15386;DHT22;7791;47.246;9.648;2022-12-07T11:34:55;4.60;99.90
15386;DHT22;7791;47.246;9.648;2022-12-07T11:37:30;5.00;99.90
15386;DHT22;7791;47.246;9.648;2022-12-07T11:40:00;5.40;99.90
15386;DHT22;7791;47.246;9.648;2022-12-07T11:42:31;5.40;99.90
15386;DHT22;7791;47.246;9.648;2022-12-07T11:45:02;5.10;99.90
15386;DHT22;7791;47.246;9.648;2022-12-07T11:47:38;5.20;99.90
15386;DHT22;7791;47.246;9.648;2022-12-07T11:50:22;5.10;99.90
15386;DHT22;7791;47.246;9.648;2022-12-07T11:52:53;5.00;99.90
15386;DHT22;7791;47.246;9.648;2022-12-07T11:55:26;5.10;99.90
15386;DHT22;7791;47.246;9.648;2022-12-07T11:57:58;5.10;99.90
15386;DHT22;7791;47.246;9.648;2022-12-07T12:00:27;5.10;99.90
15386;DHT22;7791;47.246;9.648;2022-12-07T12:02:58;4.90;99.90
15386;DHT22;7791;47.246;9.648;2022-12-07T12:05:26;4.80;99.90
15386;DHT22;7791;47.246;9.648;2022-12-07T12:07:59;4.80;99.90
15386;DHT22;7791;47.246;9.648;2022-12-07T12:10:35;4.80;99.90
15386;DHT22;7791;47.246;9.648;2022-12-07T12:16:22;5.10;99.90
15386;DHT22;7791;47.246;9.648;2022-12-07T12:19:14;5.20;99.90
15386;DHT22;7791;47.246;9.648;2022-12-07T12:21:42;5.30;99.90
15386;DHT22;7791;47.246;9.648;2022-12-07T12:24:13;5.30;99.90
15386;DHT22;7791;47.246;9.648;2022-12-07T12:26:49;5.20;99.90
15386;DHT22;7791;47.246;9.648;2022-12-07T12:29:23;5.00;99.90
15386;DHT22;7791;47.246;9.648;2022-12-07T12:32:07;4.80;99.90
15386;DHT22;7791;47.246;9.648;2022-12-07T12:34:41;4.50;99.90
15386;DHT22;7791;47.246;9.648;2022-12-07T12:37:44;4.50;99.90
15386;DHT22;7791;47.246;9.648;2022-12-07T12:40:38;4.40;99.90
15386;DHT22;7791;47.246;9.648;2022-12-07T12:43:46;4.60;99.90
15386;DHT22;7791;47.246;9.648;2022-12-07T12:55:18;4.90;99.90
15386;DHT22;7791;47.246;9.648;2022-12-07T12:57:44;5.00;99.90
15386;DHT22;7791;47.246;9.648;2022-12-07T13:00:17;5.10;99.90
15386;DHT22;7791;47.246;9.648;2022-12-07T13:02:50;5.00;99.90
15386;DHT22;7791;47.246;9.648;2022-12-07T13:05:20;5.10;99.90
15386;DHT22;7791;47.246;9.648;2022-12-07T13:07:59;4.70;99.90
15386;DHT22;7791;47.246;9.648;2022-12-07T13:10:44;4.70;99.90
15386;DHT22;7791;47.246;9.648;2022-12-07T13:13:32;4.60;99.90
15386;DHT22;7791;47.246;9.648;2022-12-07T13:22:51;4.50;99.90
15386;DHT22;7791;47.246;9.648;2022-12-07T13:25:43;4.40;99.90
15386;DHT22;7791;47.246;9.648;2022-12-07T13:28:15;4.40;99.90
15386;DHT22;7791;47.246;9.648;2022-12-07T13:30:46;4.40;99.90
15386;DHT22;7791;47.246;9.648;2022-12-07T13:33:13;4.40;99.90
15386;DHT22;7791;47.246;9.648;2022-12-07T13:35:40;4.50;99.90
15386;DHT22;7791;47.246;9.648;2022-12-07T13:38:20;4.40;99.90
15386;DHT22;7791;47.246;9.648;2022-12-07T13:41:05;4.50;99.90
15386;DHT22;7791;47.246;9.648;2022-12-07T13:43:43;4.50;99.90
15386;DHT22;7791;47.246;9.648;2022-12-07T13:46:10;4.60;99.90
15386;DHT22;7791;47.246;9.648;2022-12-07T13:48:45;4.60;99.90
15386;DHT22;7791;47.246;9.648;2022-12-07T13:51:17;4.70;99.90
15386;DHT22;7791;47.246;9.648;2022-12-07T13:53:47;4.80;99.90
15386;DHT22;7791;47.246;9.648;2022-12-07T13:56:14;4.70;99.90
15386;DHT22;7791;47.246;9.648;2022-12-07T13:58:40;4.70;99.90
15386;DHT22;7791;47.246;9.648;2022-12-07T14:01:07;4.60;99.90
15386;DHT22;7791;47.246;9.648;2022-12-07T14:03:35;4.70;99.90
15386;DHT22;7791;47.246;9.648;2022-12-07T14:06:07;4.60;99.90
15386;DHT22;7791;47.246;9.648;2022-12-07T14:08:38;4.60;99.90
15386;DHT22;7791;47.246;9.648;2022-12-07T14:11:04;4.50;99.90
15386;DHT22;7791;47.246;9.648;2022-12-07T14:13:33;4.40;99.90
15386;DHT22;7791;47.246;9.648;2022-12-07T14:16:01;4.40;99.90
15386;DHT22;7791;47.246;9.648;2022-12-07T14:18:28;4.40;99.90
15386;DHT22;7791;47.246;9.648;2022-12-07T14:21:03;4.40;99.90
15386;DHT22;7791;47.246;9.648;2022-12-07T14:23:29;4.40;99.90
15386;DHT22;7791;47.246;9.648;2022-12-07T14:26:06;4.40;99.90
15386;DHT22;7791;47.246;9.648;2022-12-07T14:28:36;4.50;99.90
15386;DHT22;7791;47.246;9.648;2022-12-07T14:31:04;4.30;99.90
15386;DHT22;7791;47.246;9.648;2022-12-07T14:33:35;4.20;99.90
15386;DHT22;7791;47.246;9.648;2022-12-07T14:36:02;4.20;99.90
15386;DHT22;7791;47.246;9.648;2022-12-07T14:38:27;4.10;99.90
15386;DHT22;7791;47.246;9.648;2022-12-07T14:40:55;4.00;99.90
15386;DHT22;7791;47.246;9.648;2022-12-07T14:43:20;3.90;99.90
15386;DHT22;7791;47.246;9.648;2022-12-07T14:45:48;3.80;99.90
15386;DHT22;7791;47.246;9.648;2022-12-07T14:48:17;3.80;99.90
15386;DHT22;7791;47.246;9.648;2022-12-07T14:50:46;3.90;99.90
15386;DHT22;7791;47.246;9.648;2022-12-07T14:53:15;4.10;99.90
15386;DHT22;7791;47.246;9.648;2022-12-07T14:55:41;4.20;99.90
15386;DHT22;7791;47.246;9.648;2022-12-07T14:58:12;4.20;99.90
15386;DHT22;7791;47.246;9.648;2022-12-07T15:00:38;4.20;99.90
15386;DHT22;7791;47.246;9.648;2022-12-07T15:03:07;3.80;99.90
15386;DHT22;7791;47.246;9.648;2022-12-07T15:05:34;3.80;99.90
15386;DHT22;7791;47.246;9.648;2022-12-07T15:08:00;3.70;99.90
15386;DHT22;7791;47.246;9.648;2022-12-07T15:10:29;3.70;99.90
15386;DHT22;7791;47.246;9.648;2022-12-07T15:12:55;3.80;99.90
15386;DHT22;7791;47.246;9.648;2022-12-07T15:15:21;3.90;99.90
15386;DHT22;7791;47.246;9.648;2022-12-07T15:17:47;3.90;99.90
15386;DHT22;7791;47.246;9.648;2022-12-07T15:20:18;3.90;99.90
15386;DHT22;7791;47.246;9.648;2022-12-07T15:22:44;4.00;99.90
15386;DHT22;7791;47.246;9.648;2022-12-07T15:25:13;4.00;99.90
15386;DHT22;7791;47.246;9.648;2022-12-07T15:27:43;4.00;99.90
15386;DHT22;7791;47.246;9.648;2022-12-07T15:30:10;4.00;99.90
15386;DHT22;7791;47.246;9.648;2022-12-07T15:32:36;4.00;99.90
15386;DHT22;7791;47.246;9.648;2022-12-07T15:35:02;4.00;99.90
15386;DHT22;7791;47.246;9.648;2022-12-07T15:37:32;4.00;99.90
15386;DHT22;7791;47.246;9.648;2022-12-07T15:39:59;3.90;99.90
15386;DHT22;7791;47.246;9.648;2022-12-07T15:42:25;3.90;99.90
15386;DHT22;7791;47.246;9.648;2022-12-07T15:44:51;3.90;99.90
15386;DHT22;7791;47.246;9.648;2022-12-07T15:47:18;3.80;99.90
15386;DHT22;7791;47.246;9.648;2022-12-07T15:49:44;3.80;99.90
15386;DHT22;7791;47.246;9.648;2022-12-07T15:52:11;3.80;99.90
15386;DHT22;7791;47.246;9.648;2022-12-07T15:54:38;3.80;99.90
15386;DHT22;7791;47.246;9.648;2022-12-07T15:57:04;3.80;99.90
15386;DHT22;7791;47.246;9.648;2022-12-07T15:59:30;3.80;99.90
15386;DHT22;7791;47.246;9.648;2022-12-07T16:01:56;3.80;99.90
15386;DHT22;7791;47.246;9.648;2022-12-07T16:04:22;3.80;99.90
15386;DHT22;7791;47.246;9.648;2022-12-07T16:06:50;3.80;99.90
15386;DHT22;7791;47.246;9.648;2022-12-07T16:09:17;3.80;99.90
15386;DHT22;7791;47.246;9.648;2022-12-07T16:11:44;3.80;99.90
15386;DHT22;7791;47.246;9.648;2022-12-07T16:14:13;3.80;99.90
15386;DHT22;7791;47.246;9.648;2022-12-07T16:16:38;3.80;99.90
15386;DHT22;7791;47.246;9.648;2022-12-07T16:19:04;3.80;99.90
15386;DHT22;7791;47.246;9.648;2022-12-07T16:21:31;3.80;99.90
15386;DHT22;7791;47.246;9.648;2022-12-07T16:23:58;3.70;99.90
15386;DHT22;7791;47.246;9.648;2022-12-07T16:26:24;3.60;99.90
15386;DHT22;7791;47.246;9.648;2022-12-07T16:28:52;3.60;99.90
15386;DHT22;7791;47.246;9.648;2022-12-07T16:31:20;3.60;99.90
15386;DHT22;7791;47.246;9.648;2022-12-07T16:33:47;3.70;99.90
15386;DHT22;7791;47.246;9.648;2022-12-07T16:36:14;3.70;99.90
15386;DHT22;7791;47.246;9.648;2022-12-07T16:38:40;3.70;99.90
15386;DHT22;7791;47.246;9.648;2022-12-07T16:41:07;3.70;99.90
15386;DHT22;7791;47.246;9.648;2022-12-07T16:43:33;3.70;99.90
15386;DHT22;7791;47.246;9.648;2022-12-07T16:46:01;3.70;99.90
15386;DHT22;7791;47.246;9.648;2022-12-07T16:48:29;3.70;99.90
15386;DHT22;7791;47.246;9.648;2022-12-07T16:50:57;3.70;99.90
15386;DHT22;7791;47.246;9.648;2022-12-07T16:53:27;3.70;99.90
15386;DHT22;7791;47.246;9.648;2022-12-07T16:55:54;3.70;99.90
15386;DHT22;7791;47.246;9.648;2022-12-07T16:58:20;3.60;99.90
15386;DHT22;7791;47.246;9.648;2022-12-07T17:00:46;3.60;99.90
15386;DHT22;7791;47.246;9.648;2022-12-07T17:03:14;3.60;99.90
15386;DHT22;7791;47.246;9.648;2022-12-07T17:05:43;3.70;99.90
15386;DHT22;7791;47.246;9.648;2022-12-07T17:08:15;3.60;99.90